Time,TemperatureF,DewpointF,PressureIn,WindDirection,WindDirectionDegrees,WindSpeedMPH,WindSpeedGustMPH,Humidity,HourlyPrecipIn,Conditions,Clouds,dailyrainin,SoftwareType,DateUTC
2013-02-02 00:03:00,28.0,4.0,-100.00,North,10,0.0,6.0,35,-99.99,,,-99.99,,2013-02-02 05:03:00,
2013-02-02 00:12:00,28.0,4.0,-100.00,North,10,4.0,6.0,35,-99.99,,,-99.99,,2013-02-02 05:12:00,
2013-02-02 00:22:00,28.0,4.0,-100.00,North,10,1.0,7.0,36,-99.99,,,-99.99,,2013-02-02 05:22:00,
2013-02-02 00:33:00,27.0,5.0,-100.00,North,10,0.0,2.0,38,-99.99,,,-99.99,,2013-02-02 05:33:00,
2013-02-02 00:42:00,26.0,5.0,-100.00,North,10,0.0,3.0,41,-99.99,,,-99.99,,2013-02-02 05:42:00,
2013-02-02 00:52:00,26.0,5.0,-100.00,North,10,0.0,3.0,41,-99.99,,,-99.99,,2013-02-02 05:52:00,
2013-02-02 01:02:00,25.0,6.0,-100.00,North,10,0.0,0.0,43,-99.99,,,-99.99,,2013-02-02 06:02:00,
2013-02-02 01:12:00,24.0,7.0,-100.00,North,10,0.0,2.0,46,-99.99,,,-99.99,,2013-02-02 06:12:00,
2013-02-02 01:22:00,24.0,7.0,-100.00,North,10,0.0,2.0,46,-99.99,,,-99.99,,2013-02-02 06:22:00,
2013-02-02 01:32:00,24.0,7.0,-100.00,North,10,0.0,2.0,46,-99.99,,,-99.99,,2013-02-02 06:32:00,
2013-02-02 01:42:00,23.0,10.0,-100.00,North,10,0.0,0.0,55,-99.99,,,-99.99,,2013-02-02 06:42:00,
2013-02-02 01:52:00,23.0,10.0,-100.00,North,10,0.0,2.0,57,-99.99,,,-99.99,,2013-02-02 06:52:00,
2013-02-02 02:02:00,23.0,11.0,-100.00,North,10,0.0,0.0,59,-99.99,,,-99.99,,2013-02-02 07:02:00,
2013-02-02 02:12:00,23.0,12.0,-100.00,North,10,0.0,0.0,62,-99.99,,,-99.99,,2013-02-02 07:12:00,
2013-02-02 02:21:00,22.0,12.0,-100.00,North,10,1.0,2.0,63,-99.99,,,-99.99,,2013-02-02 07:21:00,
2013-02-02 02:32:00,22.0,12.0,-100.00,North,10,0.0,1.0,64,-99.99,,,-99.99,,2013-02-02 07:32:00,
2013-02-02 02:42:00,22.0,12.0,-100.00,North,10,0.0,1.0,65,-99.99,,,-99.99,,2013-02-02 07:42:00,
2013-02-02 02:51:00,22.0,13.0,-100.00,North,10,1.0,2.0,66,-99.99,,,-99.99,,2013-02-02 07:51:00,
2013-02-02 03:01:00,22.0,13.0,-100.00,North,10,0.0,1.0,67,-99.99,,,-99.99,,2013-02-02 08:01:00,
2013-02-02 03:11:00,22.0,13.0,-100.00,North,10,0.0,3.0,68,-99.99,,,-99.99,,2013-02-02 08:11:00,
2013-02-02 03:21:00,22.0,13.0,-100.00,North,10,0.0,0.0,68,-99.99,,,-99.99,,2013-02-02 08:21:00,
2013-02-02 03:32:00,22.0,13.0,-100.00,North,10,0.0,0.0,68,-99.99,,,-99.99,,2013-02-02 08:32:00,
2013-02-02 03:42:00,22.0,14.0,-100.00,North,10,0.0,0.0,69,-99.99,,,-99.99,,2013-02-02 08:42:00,
2013-02-02 03:52:00,22.0,14.0,-100.00,North,10,0.0,0.0,70,-99.99,,,-99.99,,2013-02-02 08:52:00,
2013-02-02 04:02:00,22.0,14.0,-100.00,North,10,0.0,0.0,70,-99.99,,,-99.99,,2013-02-02 09:02:00,
2013-02-02 04:11:00,22.0,14.0,-100.00,North,10,0.0,0.0,71,-99.99,,,-99.99,,2013-02-02 09:11:00,
2013-02-02 04:22:00,22.0,14.0,-100.00,North,10,0.0,0.0,71,-99.99,,,-99.99,,2013-02-02 09:22:00,
2013-02-02 04:32:00,22.0,14.0,-100.00,North,10,0.0,0.0,73,-99.99,,,-99.99,,2013-02-02 09:32:00,
2013-02-02 04:42:00,22.0,14.0,-100.00,North,10,0.0,0.0,73,-99.99,,,-99.99,,2013-02-02 09:42:00,
2013-02-02 04:52:00,22.0,14.0,-100.00,North,10,0.0,0.0,73,-99.99,,,-99.99,,2013-02-02 09:52:00,
2013-02-02 05:02:00,22.0,15.0,-100.00,North,10,0.0,0.0,74,-99.99,,,-99.99,,2013-02-02 10:02:00,
2013-02-02 05:11:00,22.0,15.0,-100.00,North,10,0.0,0.0,74,-99.99,,,-99.99,,2013-02-02 10:11:00,
2013-02-02 05:21:00,22.0,15.0,-100.00,North,10,0.0,0.0,74,-99.99,,,-99.99,,2013-02-02 10:21:00,
2013-02-02 05:32:00,22.0,15.0,-100.00,North,10,0.0,0.0,74,-99.99,,,-99.99,,2013-02-02 10:32:00,
2013-02-02 05:42:00,22.0,15.0,-100.00,North,10,0.0,0.0,74,-99.99,,,-99.99,,2013-02-02 10:42:00,
2013-02-02 05:52:00,22.0,15.0,-100.00,North,10,0.0,0.0,75,-99.99,,,-99.99,,2013-02-02 10:52:00,
2013-02-02 06:02:00,21.0,15.0,-100.00,North,10,0.0,0.0,75,-99.99,,,-99.99,,2013-02-02 11:02:00,
2013-02-02 06:11:00,21.0,15.0,-100.00,North,10,0.0,0.0,76,-99.99,,,-99.99,,2013-02-02 11:11:00,
2013-02-02 06:22:00,21.0,15.0,-100.00,North,10,0.0,0.0,76,-99.99,,,-99.99,,2013-02-02 11:22:00,
2013-02-02 06:32:00,21.0,15.0,-100.00,North,10,0.0,0.0,77,-99.99,,,-99.99,,2013-02-02 11:32:00,
2013-02-02 06:42:00,21.0,15.0,-100.00,North,10,0.0,0.0,78,-99.99,,,-99.99,,2013-02-02 11:42:00,
2013-02-02 06:52:00,21.0,15.0,-100.00,North,10,0.0,1.0,78,-99.99,,,-99.99,,2013-02-02 11:52:00,
2013-02-02 07:02:00,21.0,15.0,-100.00,North,10,0.0,0.0,78,-99.99,,,-99.99,,2013-02-02 12:02:00,
2013-02-02 07:11:00,20.0,15.0,-100.00,North,10,0.0,0.0,79,-99.99,,,-99.99,,2013-02-02 12:11:00,
2013-02-02 07:22:00,20.0,15.0,-100.00,North,10,0.0,0.0,79,-99.99,,,-99.99,,2013-02-02 12:22:00,
2013-02-02 07:32:00,20.0,15.0,-100.00,North,10,0.0,0.0,80,-99.99,,,-99.99,,2013-02-02 12:32:00,
2013-02-02 07:42:00,20.0,15.0,-100.00,North,10,0.0,0.0,80,-99.99,,,-99.99,,2013-02-02 12:42:00,
2013-02-02 07:52:00,20.0,15.0,-100.00,North,10,0.0,0.0,80,-99.99,,,-99.99,,2013-02-02 12:52:00,
2013-02-02 08:03:00,20.0,15.0,-100.00,North,10,0.0,0.0,81,-99.99,,,-99.99,,2013-02-02 13:03:00,
2013-02-02 08:11:00,20.0,15.0,-100.00,North,10,0.0,0.0,81,-99.99,,,-99.99,,2013-02-02 13:11:00,
2013-02-02 08:22:00,20.0,15.0,-100.00,North,10,0.0,0.0,81,-99.99,,,-99.99,,2013-02-02 13:22:00,
2013-02-02 08:33:00,20.0,15.0,-100.00,North,10,0.0,0.0,82,-99.99,,,-99.99,,2013-02-02 13:33:00,
2013-02-02 08:42:00,20.0,16.0,-100.00,North,10,0.0,0.0,83,-99.99,,,-99.99,,2013-02-02 13:42:00,
2013-02-02 08:52:00,22.0,17.0,-100.00,North,10,0.0,0.0,83,-99.99,,,-99.99,,2013-02-02 13:52:00,
2013-02-02 09:03:00,23.0,18.0,-100.00,North,10,0.0,0.0,80,-99.99,,,-99.99,,2013-02-02 14:03:00,
2013-02-02 09:11:00,25.0,18.0,-100.00,North,10,0.0,0.0,75,-99.99,,,-99.99,,2013-02-02 14:11:00,
2013-02-02 09:22:00,27.0,18.0,-100.00,North,10,0.0,0.0,70,-99.99,,,-99.99,,2013-02-02 14:22:00,
2013-02-02 09:33:00,29.0,18.0,-100.00,North,10,0.0,0.0,65,-99.99,,,-99.99,,2013-02-02 14:33:00,
2013-02-02 09:42:00,29.0,16.0,-100.00,North,10,0.0,0.0,57,-99.99,,,-99.99,,2013-02-02 14:42:00,
2013-02-02 09:52:00,31.0,15.0,-100.00,North,10,0.0,0.0,49,-99.99,,,-99.99,,2013-02-02 14:52:00,
2013-02-02 10:03:00,34.0,12.0,-100.00,North,10,0.0,1.0,41,-99.99,,,-99.99,,2013-02-02 15:03:00,
2013-02-02 10:12:00,35.0,9.0,-100.00,North,10,1.0,4.0,33,-99.99,,,-99.99,,2013-02-02 15:12:00,
2013-02-02 10:22:00,33.0,4.0,-100.00,North,10,4.0,6.0,29,-99.99,,,-99.99,,2013-02-02 15:22:00,
2013-02-02 10:32:00,37.0,6.0,-100.00,North,10,2.0,4.0,27,-99.99,,,-99.99,,2013-02-02 15:32:00,
2013-02-02 10:42:00,39.0,6.0,-100.00,North,10,1.0,4.0,25,-99.99,,,-99.99,,2013-02-02 15:42:00,
2013-02-02 10:52:00,40.0,5.0,-100.00,North,10,0.0,4.0,23,-99.99,,,-99.99,,2013-02-02 15:52:00,
2013-02-02 11:03:00,39.0,3.0,-100.00,North,10,5.0,9.0,22,-99.99,,,-99.99,,2013-02-02 16:03:00,
2013-02-02 11:12:00,39.0,2.0,-100.00,North,10,3.0,7.0,21,-99.99,,,-99.99,,2013-02-02 16:12:00,
2013-02-02 11:23:00,39.0,2.0,-100.00,North,10,2.0,12.0,21,-99.99,,,-99.99,,2013-02-02 16:23:00,
2013-02-02 11:32:00,39.0,2.0,-100.00,North,10,4.0,10.0,21,-99.99,,,-99.99,,2013-02-02 16:32:00,
2013-02-02 11:42:00,39.0,1.0,-100.00,North,10,5.0,9.0,20,-99.99,,,-99.99,,2013-02-02 16:42:00,
2013-02-02 11:52:00,41.0,4.0,-100.00,North,10,1.0,11.0,21,-99.99,,,-99.99,,2013-02-02 16:52:00,
2013-02-02 12:03:00,40.0,2.0,-100.00,North,10,4.0,10.0,20,-99.99,,,-99.99,,2013-02-02 17:03:00,
2013-02-02 12:11:00,40.0,2.0,-100.00,North,10,5.0,11.0,20,-99.99,,,-99.99,,2013-02-02 17:11:00,
2013-02-02 12:23:00,39.0,0.0,-100.00,North,10,4.0,10.0,19,-99.99,,,-99.99,,2013-02-02 17:23:00,
2013-02-02 12:32:00,39.0,1.0,-100.00,North,10,2.0,7.0,20,-99.99,,,-99.99,,2013-02-02 17:32:00,
2013-02-02 12:42:00,41.0,2.0,-100.00,North,10,6.0,9.0,19,-99.99,,,-99.99,,2013-02-02 17:42:00,
2013-02-02 12:52:00,40.0,1.0,-100.00,North,10,4.0,11.0,19,-99.99,,,-99.99,,2013-02-02 17:52:00,
2013-02-02 13:03:00,41.0,2.0,-100.00,North,10,4.0,14.0,19,-99.99,,,-99.99,,2013-02-02 18:03:00,
2013-02-02 13:12:00,41.0,1.0,-100.00,North,10,5.0,12.0,18,-99.99,,,-99.99,,2013-02-02 18:12:00,
2013-02-02 13:22:00,42.0,2.0,-100.00,North,10,8.0,12.0,18,-99.99,,,-99.99,,2013-02-02 18:22:00,
2013-02-02 13:32:00,43.0,1.0,-100.00,North,10,4.0,13.0,17,-99.99,,,-99.99,,2013-02-02 18:32:00,
2013-02-02 13:42:00,43.0,1.0,-100.00,North,10,3.0,15.0,17,-99.99,,,-99.99,,2013-02-02 18:42:00,
2013-02-02 13:52:00,44.0,0.0,-100.00,North,10,4.0,10.0,16,-99.99,,,-99.99,,2013-02-02 18:52:00,
2013-02-02 14:02:00,42.0,-2.0,-100.00,North,10,5.0,14.0,15,-99.99,,,-99.99,,2013-02-02 19:02:00,
2013-02-02 14:12:00,44.0,-1.0,-100.00,North,10,9.0,15.0,15,-99.99,,,-99.99,,2013-02-02 19:12:00,
2013-02-02 14:22:00,42.0,-1.0,-100.00,North,10,6.0,13.0,16,-99.99,,,-99.99,,2013-02-02 19:22:00,
2013-02-02 14:32:00,42.0,-1.0,-100.00,North,10,2.0,10.0,16,-99.99,,,-99.99,,2013-02-02 19:32:00,
2013-02-02 14:42:00,43.0,1.0,-100.00,North,10,4.0,11.0,17,-99.99,,,-99.99,,2013-02-02 19:42:00,
2013-02-02 14:52:00,43.0,2.0,-100.00,North,10,8.0,14.0,18,-99.99,,,-99.99,,2013-02-02 19:52:00,
2013-02-02 15:02:00,44.0,4.0,-100.00,North,10,4.0,15.0,19,-99.99,,,-99.99,,2013-02-02 20:02:00,
2013-02-02 15:12:00,44.0,6.0,-100.00,North,10,5.0,15.0,21,-99.99,,,-99.99,,2013-02-02 20:12:00,
2013-02-02 15:22:00,44.0,6.0,-100.00,North,10,5.0,15.0,21,-99.99,,,-99.99,,2013-02-02 20:22:00,
2013-02-02 15:32:00,44.0,7.0,-100.00,North,10,4.0,11.0,22,-99.99,,,-99.99,,2013-02-02 20:32:00,
2013-02-02 15:42:00,43.0,7.0,-100.00,North,10,6.0,16.0,22,-99.99,,,-99.99,,2013-02-02 20:42:00,
2013-02-02 15:52:00,43.0,7.0,-100.00,North,10,6.0,12.0,23,-99.99,,,-99.99,,2013-02-02 20:52:00,
2013-02-02 16:02:00,42.0,8.0,-100.00,North,10,6.0,19.0,25,-99.99,,,-99.99,,2013-02-02 21:02:00,
2013-02-02 16:11:00,41.0,10.0,-100.00,North,10,8.0,13.0,27,-99.99,,,-99.99,,2013-02-02 21:11:00,
2013-02-02 16:22:00,41.0,13.0,-100.00,North,10,6.0,14.0,32,-99.99,,,-99.99,,2013-02-02 21:22:00,
2013-02-02 16:32:00,40.0,16.0,-100.00,North,10,10.0,14.0,37,-99.99,,,-99.99,,2013-02-02 21:32:00,
2013-02-02 16:42:00,40.0,18.0,-100.00,North,10,2.0,11.0,41,-99.99,,,-99.99,,2013-02-02 21:42:00,
2013-02-02 16:52:00,39.0,20.0,-100.00,North,10,2.0,10.0,46,-99.99,,,-99.99,,2013-02-02 21:52:00,
2013-02-02 17:03:00,39.0,23.0,-100.00,North,10,7.0,11.0,53,-99.99,,,-99.99,,2013-02-02 22:03:00,
2013-02-02 17:12:00,38.0,26.0,-100.00,North,10,6.0,14.0,62,-99.99,,,-99.99,,2013-02-02 22:12:00,
2013-02-02 17:21:00,37.0,28.0,-100.00,North,10,1.0,9.0,69,-99.99,,,-99.99,,2013-02-02 22:21:00,
2013-02-02 17:32:00,36.0,29.0,-100.00,North,10,3.0,8.0,75,-99.99,,,-99.99,,2013-02-02 22:32:00,
2013-02-02 17:42:00,36.0,30.0,-100.00,North,10,4.0,7.0,78,-99.99,,,-99.99,,2013-02-02 22:42:00,
2013-02-02 17:52:00,35.0,30.0,-100.00,North,10,4.0,7.0,80,-99.99,,,-99.99,,2013-02-02 22:52:00,
2013-02-02 18:02:00,35.0,30.0,-100.00,North,10,4.0,7.0,81,-99.99,,,-99.99,,2013-02-02 23:02:00,
2013-02-02 18:11:00,36.0,31.0,-100.00,North,10,6.0,11.0,83,-99.99,,,-99.99,,2013-02-02 23:11:00,
2013-02-02 18:22:00,36.0,31.0,-100.00,North,10,2.0,6.0,83,-99.99,,,-99.99,,2013-02-02 23:22:00,
2013-02-02 18:32:00,36.0,31.0,-100.00,North,10,4.0,9.0,84,-99.99,,,-99.99,,2013-02-02 23:32:00,
2013-02-02 18:42:00,35.0,31.0,-100.00,North,10,4.0,7.0,84,-99.99,,,-99.99,,2013-02-02 23:42:00,
2013-02-02 18:52:00,35.0,31.0,-100.00,North,10,1.0,7.0,85,-99.99,,,-99.99,,2013-02-02 23:52:00,
2013-02-02 19:02:00,35.0,31.0,-100.00,NNE,15,1.0,10.0,85,-99.99,,,-99.99,,2013-02-03 00:02:00,
2013-02-02 19:11:00,35.0,31.0,-100.00,NNE,15,3.0,6.0,85,-99.99,,,-99.99,,2013-02-03 00:11:00,
2013-02-02 19:22:00,35.0,31.0,-100.00,NNE,15,4.0,11.0,85,-99.99,,,-99.99,,2013-02-03 00:22:00,
2013-02-02 19:32:00,35.0,31.0,-100.00,NNE,15,1.0,5.0,86,-99.99,,,-99.99,,2013-02-03 00:32:00,
2013-02-02 19:42:00,35.0,31.0,-100.00,NNE,15,2.0,5.0,86,-99.99,,,-99.99,,2013-02-03 00:42:00,
2013-02-02 19:52:00,35.0,32.0,-100.00,NNE,15,3.0,8.0,87,-99.99,,,-99.99,,2013-02-03 00:52:00,
2013-02-02 20:02:00,35.0,32.0,-100.00,NNE,15,2.0,10.0,87,-99.99,,,-99.99,,2013-02-03 01:02:00,
2013-02-02 20:11:00,35.0,31.0,-100.00,NNE,15,4.0,12.0,87,-99.99,,,-99.99,,2013-02-03 01:11:00,
2013-02-02 20:21:00,35.0,32.0,-100.00,NNE,15,2.0,9.0,87,-99.99,,,-99.99,,2013-02-03 01:21:00,
2013-02-02 20:32:00,35.0,32.0,-100.00,NNE,20,1.0,9.0,87,-99.99,,,-99.99,,2013-02-03 01:32:00,
2013-02-02 20:42:00,35.0,32.0,-100.00,NNE,15,4.0,9.0,87,-99.99,,,-99.99,,2013-02-03 01:42:00,
2013-02-02 20:52:00,35.0,32.0,-100.00,NNE,15,4.0,8.0,87,-99.99,,,-99.99,,2013-02-03 01:52:00,
2013-02-02 21:01:00,35.0,32.0,-100.00,NNE,20,4.0,9.0,87,-99.99,,,-99.99,,2013-02-03 02:01:00,
2013-02-02 21:11:00,35.0,32.0,-100.00,NNE,20,4.0,9.0,87,-99.99,,,-99.99,,2013-02-03 02:11:00,
2013-02-02 21:21:00,35.0,32.0,-100.00,NNE,20,4.0,9.0,87,-99.99,,,-99.99,,2013-02-03 02:21:00,
2013-02-02 21:32:00,35.0,32.0,-100.00,NNE,20,2.0,12.0,87,-99.99,,,-99.99,,2013-02-03 02:32:00,
2013-02-02 21:42:00,36.0,32.0,-100.00,NNE,20,2.0,9.0,87,-99.99,,,-99.99,,2013-02-03 02:42:00,
2013-02-02 21:52:00,36.0,32.0,-100.00,NNE,20,2.0,9.0,87,-99.99,,,-99.99,,2013-02-03 02:52:00,
2013-02-02 22:02:00,36.0,32.0,-100.00,NNE,20,1.0,6.0,87,-99.99,,,-99.99,,2013-02-03 03:02:00,
2013-02-02 22:11:00,36.0,32.0,-100.00,NNE,20,1.0,6.0,87,-99.99,,,-99.99,,2013-02-03 03:11:00,
2013-02-02 22:22:00,36.0,32.0,-100.00,NNE,20,1.0,8.0,87,-99.99,,,-99.99,,2013-02-03 03:22:00,
2013-02-02 22:32:00,36.0,33.0,-100.00,NNE,25,5.0,10.0,87,-99.99,,,-99.99,,2013-02-03 03:32:00,
2013-02-02 22:42:00,36.0,33.0,-100.00,NNE,25,3.0,11.0,87,-99.99,,,-99.99,,2013-02-03 03:42:00,
2013-02-02 22:51:00,36.0,33.0,-100.00,NNE,25,4.0,6.0,87,-99.99,,,-99.99,,2013-02-03 03:51:00,
2013-02-02 23:01:00,36.0,33.0,-100.00,NNE,25,3.0,10.0,87,-99.99,,,-99.99,,2013-02-03 04:01:00,
2013-02-02 23:11:00,36.0,33.0,-100.00,NNE,25,5.0,9.0,87,-99.99,,,-99.99,,2013-02-03 04:11:00,
2013-02-02 23:22:00,36.0,33.0,-100.00,NNE,25,3.0,11.0,87,-99.99,,,-99.99,,2013-02-03 04:22:00,
2013-02-02 23:32:00,36.0,32.0,-100.00,NNE,25,4.0,15.0,86,-99.99,,,-99.99,,2013-02-03 04:32:00,
2013-02-02 23:42:00,36.0,32.0,-100.00,NNE,25,5.0,11.0,86,-99.99,,,-99.99,,2013-02-03 04:42:00,
2013-02-02 23:52:00,36.0,32.0,-100.00,NNE,25,5.0,11.0,86,-99.99,,,-99.99,,2013-02-03 04:52:00,